Time;durP1;ratioP1;P1;durP2;ratioP2;P2;SDS_P1;SDS_P2;PMS_P1;PMS_P2;Temp;Humidity;BMP_temperature;BMP_pressure;BME280_temperature;BME280_humidity;BME280_pressure;Samples;Min_cycle;Max_cycle;Signal;HPM_P1;HPM_P2
2023/03/04 00:00:42;;;;;;;29.10;13.73;;;;;;;0.68;100.00;100603.09;4974450;28;20468;-77
2023/03/04 00:03:09;;;;;;;37.65;15.98;;;;;;;0.64;100.00;100602.34;4926216;28;20422;-75
2023/03/04 00:05:37;;;;;;;36.40;14.88;;;;;;;0.62;100.00;100593.50;4973598;28;20039;-75
2023/03/04 00:08:04;;;;;;;31.02;14.40;;;;;;;0.63;100.00;100585.88;4974238;28;20034;-74
2023/03/04 00:10:30;;;;;;;33.33;13.77;;;;;;;0.59;100.00;100591.53;4974265;28;20447;-76
2023/03/04 00:12:55;;;;;;;30.35;13.02;;;;;;;0.64;100.00;100582.66;4974017;28;20520;-74
2023/03/04 00:15:20;;;;;;;28.50;13.45;;;;;;;0.56;100.00;100587.56;4956760;28;20140;-75
2023/03/04 00:17:48;;;;;;;27.27;14.10;;;;;;;0.65;100.00;100586.28;4974269;28;20034;-78
2023/03/04 00:20:14;;;;;;;29.35;13.32;;;;;;;0.67;100.00;100581.00;4974971;28;20413;-75
2023/03/04 00:22:40;;;;;;;27.13;14.65;;;;;;;0.66;100.00;100571.81;4957873;28;20084;-76
2023/03/04 00:25:07;;;;;;;37.30;15.27;;;;;;;0.57;100.00;100561.03;4972158;28;20030;-74
2023/03/04 00:27:40;;;;;;;29.55;14.32;;;;;;;0.36;100.00;100521.13;4973814;28;20388;-74
2023/03/04 00:30:06;;;;;;;34.22;16.13;;;;;;;0.57;100.00;100561.03;4973971;28;20081;-76
2023/03/04 00:32:32;;;;;;;29.23;13.57;;;;;;;0.54;100.00;100541.41;4974118;28;20030;-75
2023/03/04 00:34:57;;;;;;;29.08;12.95;;;;;;;0.42;100.00;100496.94;4974067;28;20034;-75
2023/03/04 00:37:23;;;;;;;25.63;13.05;;;;;;;0.71;100.00;100536.81;4973573;28;20493;-75
2023/03/04 00:39:48;;;;;;;26.13;12.73;;;;;;;0.71;100.00;100537.59;4973647;28;20484;-75
2023/03/04 00:42:13;;;;;;;30.73;12.75;;;;;;;0.73;100.00;100532.34;4973644;28;20058;-75
2023/03/04 00:44:39;;;;;;;30.27;12.32;;;;;;;0.66;100.00;100532.44;4974265;28;20085;-75
2023/03/04 00:47:05;;;;;;;22.48;10.73;;;;;;;0.75;100.00;100532.72;4974747;28;20361;-76
2023/03/04 00:49:30;;;;;;;25.67;11.40;;;;;;;0.70;100.00;100527.56;4973862;28;20058;-76
2023/03/04 00:51:56;;;;;;;26.70;12.70;;;;;;;0.61;100.00;100518.84;4973506;28;20038;-75
2023/03/04 00:54:21;;;;;;;23.63;11.25;;;;;;;0.64;100.00;100522.81;4973518;28;20015;-74
2023/03/04 00:56:48;;;;;;;30.77;11.23;;;;;;;0.69;100.00;100513.91;4956032;28;20356;-75
2023/03/04 00:59:15;;;;;;;25.83;11.30;;;;;;;0.63;100.00;100521.22;4972486;28;20034;-77
2023/03/04 01:01:40;;;;;;;18.55;9.38;;;;;;;0.80;100.00;100512.56;4973490;28;20054;-75
2023/03/04 01:04:07;;;;;;;21.80;10.68;;;;;;;0.75;100.00;100503.81;4974655;28;20487;-73
2023/03/04 01:06:32;;;;;;;25.00;11.15;;;;;;;0.81;100.00;100497.28;4975349;28;20058;-76
2023/03/04 01:08:57;;;;;;;33.83;12.23;;;;;;;0.78;100.00;100498.13;4974960;28;20034;-75
2023/03/04 01:11:23;;;;;;;25.42;11.18;;;;;;;0.70;100.00;100493.81;4957922;28;20038;-75
2023/03/04 01:13:51;;;;;;;24.77;11.75;;;;;;;0.69;100.00;100505.47;4959098;28;20054;-75
2023/03/04 01:16:17;;;;;;;30.80;10.98;;;;;;;0.59;100.00;100490.34;4985353;28;20479;-77
2023/03/04 01:18:43;;;;;;;22.27;11.30;;;;;;;0.70;100.00;100498.66;4970930;28;20038;-75
2023/03/04 01:21:10;;;;;;;28.50;13.38;;;;;;;0.74;100.00;100491.75;4963474;28;20034;-74
2023/03/04 01:23:35;;;;;;;24.13;10.35;;;;;;;0.79;100.00;100487.69;4965984;28;20037;-76
2023/03/04 01:26:01;;;;;;;26.67;11.65;;;;;;;0.79;100.00;100479.25;4973100;28;20098;-74
2023/03/04 01:28:27;;;;;;;28.63;11.52;;;;;;;0.74;100.00;100469.25;4973050;28;20027;-77
2023/03/04 01:30:52;;;;;;;23.85;12.73;;;;;;;0.68;100.00;100456.09;4955832;28;20142;-77
2023/03/04 01:33:21;;;;;;;25.15;12.43;;;;;;;0.83;100.00;100471.56;4972914;28;20031;-74
2023/03/04 01:35:46;;;;;;;22.00;10.48;;;;;;;0.74;100.00;100460.03;4972712;28;20073;-74
2023/03/04 01:38:13;;;;;;;22.30;10.45;;;;;;;0.84;100.00;100461.91;4956505;28;20035;-76
2023/03/04 01:40:39;;;;;;;29.90;11.50;;;;;;;0.87;100.00;100464.66;4974608;28;20023;-74
2023/03/04 01:43:05;;;;;;;27.33;11.25;;;;;;;0.79;100.00;100453.94;4973575;28;20093;-75
2023/03/04 01:45:33;;;;;;;23.15;10.27;;;;;;;0.89;100.00;100439.72;4956869;28;20019;-75
2023/03/04 01:47:59;;;;;;;25.73;11.45;;;;;;;0.83;100.00;100449.84;4956785;28;20079;-75
2023/03/04 01:50:36;;;;;;;22.55;10.48;;;;;;;0.84;100.00;100440.19;4940675;28;20035;-74
2023/03/04 01:53:03;;;;;;;24.95;10.93;;;;;;;0.85;100.00;100435.38;4974116;28;20030;-74
2023/03/04 01:55:29;;;;;;;25.13;11.05;;;;;;;0.87;100.00;100430.09;4956626;28;20054;-75
2023/03/04 01:57:58;;;;;;;29.80;12.30;;;;;;;0.85;100.00;100421.31;4956644;28;20022;-75
2023/03/04 02:00:30;;;;;;;26.70;12.65;;;;;;;0.89;100.00;100416.44;4957337;28;20058;-75
2023/03/04 02:03:22;;;;;;;23.90;11.73;;;;;;;0.93;100.00;100417.97;4974014;28;20019;-76
2023/03/04 02:06:04;;;;;;;25.35;11.45;;;;;;;0.99;100.00;100409.84;4968844;28;20043;-75
2023/03/04 02:08:30;;;;;;;27.90;12.40;;;;;;;0.93;100.00;100417.16;4955406;28;20473;-77
2023/03/04 02:10:56;;;;;;;32.20;13.95;;;;;;;0.90;100.00;100415.22;4956765;28;20034;-75
2023/03/04 02:13:21;;;;;;;30.98;14.85;;;;;;;0.93;100.00;100417.16;4976100;28;20156;-74
2023/03/04 02:15:48;;;;;;;29.27;14.57;;;;;;;0.85;100.00;100405.22;4959222;28;20030;-75
2023/03/04 02:18:27;;;;;;;37.88;18.00;;;;;;;1.07;100.00;100402.88;4975720;28;20043;-74
2023/03/04 02:21:21;;;;;;;40.15;20.15;;;;;;;0.97;100.00;100421.50;4958825;28;20027;-75
2023/03/04 02:24:42;;;;;;;43.35;19.17;;;;;;;0.87;100.00;100410.41;4958757;28;20084;-75
2023/03/04 02:27:11;;;;;;;42.22;19.65;;;;;;;0.84;100.00;100411.28;4954346;28;20089;-74
2023/03/04 02:29:37;;;;;;;46.42;19.25;;;;;;;0.91;100.00;100426.00;4975574;28;20050;-74
2023/03/04 02:32:03;;;;;;;38.83;19.63;;;;;;;0.98;100.00;100417.47;4974004;28;20488;-78
2023/03/04 02:34:48;;;;;;;43.17;20.58;;;;;;;1.03;100.00;100414.19;4974704;28;20061;-74
2023/03/04 02:37:14;;;;;;;33.90;17.27;;;;;;;0.97;100.00;100410.25;4940523;28;20046;-77
2023/03/04 02:39:42;;;;;;;36.75;16.65;;;;;;;1.02;100.00;100412.59;4974944;28;20058;-75
2023/03/04 02:42:08;;;;;;;35.45;16.02;;;;;;;0.96;100.00;100405.84;4958206;28;20045;-74
2023/03/04 02:44:46;;;;;;;31.42;13.52;;;;;;;1.03;100.00;100400.13;4976622;28;20031;-75
2023/03/04 02:47:13;;;;;;;28.67;12.60;;;;;;;0.91;100.00;100397.88;4977107;28;20037;-75
2023/03/04 02:49:40;;;;;;;30.20;14.43;;;;;;;0.78;100.00;100380.00;4977012;28;20058;-74
2023/03/04 02:52:20;;;;;;;26.75;12.88;;;;;;;1.01;100.00;100377.25;4976871;28;20039;-75
2023/03/04 02:54:45;;;;;;;28.00;12.93;;;;;;;0.99;100.00;100376.88;4943096;28;20393;-75
2023/03/04 02:57:12;;;;;;;26.85;12.00;;;;;;;0.98;100.00;100374.50;4959163;28;20030;-75
2023/03/04 02:59:39;;;;;;;25.05;11.57;;;;;;;1.06;100.00;100381.59;4976566;28;20034;-75
2023/03/04 03:02:05;;;;;;;25.65;12.23;;;;;;;0.97;100.00;100359.63;4959635;28;20080;-75
2023/03/04 03:04:30;;;;;;;29.05;11.90;;;;;;;1.07;100.00;100385.19;4976633;28;20475;-75
2023/03/04 03:06:56;;;;;;;31.70;12.45;;;;;;;1.07;100.00;100379.56;4976555;28;20023;-75
2023/03/04 03:09:21;;;;;;;29.48;12.68;;;;;;;1.03;100.00;100380.44;4959107;28;20029;-75
2023/03/04 03:11:48;;;;;;;30.30;13.23;;;;;;;1.03;100.00;100380.44;4976173;28;20452;-74
2023/03/04 03:14:14;;;;;;;31.35;12.70;;;;;;;0.95;100.00;100364.91;4976110;28;20027;-75
2023/03/04 03:16:39;;;;;;;27.77;11.90;;;;;;;1.12;100.00;100368.63;4976416;28;20081;-75
2023/03/04 03:19:05;;;;;;;21.63;11.80;;;;;;;1.04;100.00;100370.78;4974910;28;20130;-76
2023/03/04 03:21:30;;;;;;;26.35;12.52;;;;;;;0.99;100.00;100370.47;4972907;28;20030;-78
2023/03/04 03:23:56;;;;;;;26.67;12.32;;;;;;;0.61;100.00;100314.38;4973875;28;20448;-75
2023/03/04 03:26:21;;;;;;;27.58;12.98;;;;;;;1.04;100.00;100375.59;4956491;28;20026;-76
2023/03/04 03:28:47;;;;;;;24.13;11.95;;;;;;;1.10;100.00;100373.09;4974970;28;20030;-76
2023/03/04 03:31:12;;;;;;;28.17;12.98;;;;;;;1.16;100.00;100371.41;4974096;28;20022;-76
2023/03/04 03:33:38;;;;;;;21.80;11.27;;;;;;;1.15;100.00;100378.25;4974268;28;20524;-75
2023/03/04 03:36:03;;;;;;;28.40;12.60;;;;;;;1.03;100.00;100355.13;4940524;28;20134;-75
2023/03/04 03:38:29;;;;;;;32.35;13.60;;;;;;;1.12;100.00;100362.22;4975476;28;20034;-74
2023/03/04 03:40:54;;;;;;;24.40;10.57;;;;;;;0.85;100.00;100328.50;4974350;28;20030;-76
2023/03/04 03:43:20;;;;;;;26.20;12.02;;;;;;;0.97;100.00;100341.94;4956529;28;20407;-76
2023/03/04 03:45:45;;;;;;;27.90;12.55;;;;;;;1.16;100.00;100374.22;4973602;28;20023;-75
2023/03/04 03:48:11;;;;;;;26.83;13.65;;;;;;;1.14;100.00;100366.19;4973982;28;20375;-77
2023/03/04 03:50:36;;;;;;;25.30;12.48;;;;;;;1.13;100.00;100367.41;4973514;28;20031;-77
2023/03/04 03:53:02;;;;;;;25.95;12.38;;;;;;;0.95;100.00;100341.59;4973505;28;20477;-75
2023/03/04 03:55:28;;;;;;;27.13;12.05;;;;;;;1.10;100.00;100359.84;4973241;28;20023;-75
2023/03/04 03:57:53;;;;;;;27.98;13.73;;;;;;;1.15;100.00;100364.97;4940921;28;20034;-76
2023/03/04 04:00:19;;;;;;;31.25;13.38;;;;;;;0.95;100.00;100328.34;4974354;28;20049;-77
2023/03/04 04:02:44;;;;;;;28.17;13.65;;;;;;;1.14;100.00;100348.53;4973376;28;20058;-76
2023/03/04 04:05:10;;;;;;;27.52;14.18;;;;;;;1.11;100.00;100355.00;4973241;28;20059;-76
2023/03/04 04:07:36;;;;;;;27.15;11.80;;;;;;;1.20;100.00;100358.06;4956193;28;20022;-75
2023/03/04 04:10:03;;;;;;;25.98;11.35;;;;;;;1.19;100.00;100357.28;4973195;28;20396;-77
2023/03/04 04:12:29;;;;;;;30.08;11.77;;;;;;;1.20;100.00;100333.53;4956514;28;20027;-75
2023/03/04 04:14:55;;;;;;;27.67;13.32;;;;;;;1.18;100.00;100327.53;4969621;28;20043;-76
2023/03/04 04:17:20;;;;;;;29.92;12.23;;;;;;;1.15;100.00;100334.03;4955640;28;20065;-75
2023/03/04 04:19:46;;;;;;;27.33;12.88;;;;;;;1.22;100.00;100314.19;4972953;28;20513;-74
2023/03/04 04:22:16;;;;;;;29.58;13.15;;;;;;;1.28;100.00;100334.19;4939488;28;20027;-75
2023/03/04 04:24:42;;;;;;;27.15;12.30;;;;;;;1.22;100.00;100325.44;4955533;28;20026;-76
2023/03/04 04:27:07;;;;;;;27.58;12.00;;;;;;;1.25;100.00;100316.16;4955811;28;20031;-76
2023/03/04 04:29:33;;;;;;;30.45;13.27;;;;;;;1.32;100.00;100329.31;4939430;28;20461;-76
2023/03/04 04:31:58;;;;;;;23.50;10.38;;;;;;;1.19;100.00;100315.06;4972898;28;20030;-75
2023/03/04 04:34:24;;;;;;;25.35;12.60;;;;;;;1.19;100.00;100311.44;4955649;28;20098;-74
2023/03/04 04:36:50;;;;;;;28.35;14.32;;;;;;;1.19;100.00;100322.72;4972668;28;20476;-74
2023/03/04 04:39:15;;;;;;;29.90;14.30;;;;;;;1.27;100.00;100324.16;4972622;28;20563;-75
2023/03/04 04:41:43;;;;;;;21.00;11.73;;;;;;;1.35;100.00;100309.56;4972577;28;20041;-74
2023/03/04 04:44:09;;;;;;;29.05;14.40;;;;;;;1.36;100.00;100313.94;4972712;28;20057;-75
2023/03/04 04:46:37;;;;;;;32.67;14.60;;;;;;;1.29;100.00;100307.66;4972787;28;20033;-74
2023/03/04 04:49:03;;;;;;;27.98;14.75;;;;;;;1.30;100.00;100314.88;4972442;28;20375;-76
2023/03/04 04:51:29;;;;;;;28.73;12.07;;;;;;;1.33;100.00;100303.56;4956209;28;20485;-75
2023/03/04 04:53:54;;;;;;;21.88;10.20;;;;;;;1.34;100.00;100281.81;4974510;28;20031;-76
2023/03/04 04:56:25;;;;;;;27.77;12.43;;;;;;;1.32;100.00;100276.63;4957101;28;20030;-75
2023/03/04 04:58:53;;;;;;;23.05;12.90;;;;;;;1.21;100.00;100289.28;4957754;28;20038;-75
2023/03/04 05:01:20;;;;;;;27.17;12.40;;;;;;;1.20;100.00;100280.06;4957301;28;20132;-75
2023/03/04 05:03:49;;;;;;;27.67;11.70;;;;;;;1.19;100.00;100277.69;4957567;28;20078;-75
2023/03/04 05:06:23;;;;;;;25.95;12.65;;;;;;;1.29;100.00;100268.25;4974435;28;20058;-75
2023/03/04 05:08:57;;;;;;;25.60;11.70;;;;;;;1.31;100.00;100280.66;4974380;28;20062;-76
2023/03/04 05:11:23;;;;;;;25.20;10.52;;;;;;;1.33;100.00;100289.47;4957508;28;20093;-76
2023/03/04 05:13:50;;;;;;;18.05;9.77;;;;;;;1.30;100.00;100262.19;4957119;28;20030;-76
2023/03/04 05:16:16;;;;;;;26.40;12.07;;;;;;;1.24;100.00;100269.53;4941326;28;20034;-75
2023/03/04 05:18:44;;;;;;;23.98;11.70;;;;;;;1.33;100.00;100272.59;4941425;28;20460;-75
2023/03/04 05:21:11;;;;;;;24.67;11.52;;;;;;;1.19;100.00;100260.81;4975247;28;20041;-75
2023/03/04 05:23:39;;;;;;;19.08;10.20;;;;;;;1.34;100.00;100279.81;4958281;28;20031;-75
2023/03/04 05:26:06;;;;;;;25.13;12.18;;;;;;;1.34;100.00;100291.06;4958015;28;20118;-75
2023/03/04 05:28:32;;;;;;;22.98;11.80;;;;;;;1.37;100.00;100281.75;4958829;28;20039;-74
2023/03/04 05:30:57;;;;;;;23.33;12.70;;;;;;;1.33;100.00;100283.06;4957769;28;20042;-74
2023/03/04 05:33:23;;;;;;;24.25;11.85;;;;;;;1.28;100.00;100272.28;4956994;28;20030;-75
2023/03/04 05:35:50;;;;;;;23.67;11.43;;;;;;;1.40;100.00;100282.94;4973603;28;20133;-74
2023/03/04 05:38:18;;;;;;;26.85;12.93;;;;;;;1.38;100.00;100276.91;4974381;28;20469;-74
2023/03/04 05:40:44;;;;;;;20.45;11.60;;;;;;;1.44;100.00;100295.72;4925113;28;20477;-74
2023/03/04 05:43:11;;;;;;;18.85;10.98;;;;;;;1.42;100.00;100286.88;4956969;28;20421;-75
2023/03/04 05:45:37;;;;;;;23.40;10.73;;;;;;;1.51;100.00;100286.31;4958624;28;20054;-75
2023/03/04 05:48:03;;;;;;;27.95;12.65;;;;;;;1.42;100.00;100274.84;4977964;28;20027;-75
2023/03/04 05:50:30;;;;;;;18.55;11.50;;;;;;;1.49;100.00;100285.97;4961148;28;20030;-75
2023/03/04 05:52:57;;;;;;;23.98;13.27;;;;;;;1.51;100.00;100282.69;4960772;28;20377;-75
2023/03/04 05:55:22;;;;;;;20.88;10.65;;;;;;;1.54;100.00;100288.28;4944439;28;20035;-76
2023/03/04 05:57:49;;;;;;;24.45;10.68;;;;;;;1.63;100.00;100282.88;4976932;28;20546;-76
2023/03/04 06:00:15;;;;;;;22.88;12.15;;;;;;;1.62;100.00;100288.94;4977801;28;20384;-75
2023/03/04 06:02:42;;;;;;;26.98;12.18;;;;;;;1.67;100.00;100283.59;4960351;28;20480;-75
2023/03/04 06:05:10;;;;;;;24.90;12.40;;;;;;;1.65;100.00;100282.44;4944439;28;20034;-76
2023/03/04 06:07:37;;;;;;;26.02;12.43;;;;;;;1.64;100.00;100283.66;4960528;28;20042;-74
2023/03/04 06:10:05;;;;;;;27.38;12.15;;;;;;;1.63;100.00;100274.44;4977608;28;20030;-75
2023/03/04 06:12:32;;;;;;;23.25;12.82;;;;;;;1.68;100.00;100275.94;4977616;28;20108;-75
2023/03/04 06:14:58;;;;;;;24.17;12.35;;;;;;;1.77;100.00;100276.16;4960135;28;20069;-76
2023/03/04 06:17:25;;;;;;;32.70;12.95;;;;;;;1.82;100.00;100275.66;4960160;28;20102;-73
2023/03/04 06:19:52;;;;;;;29.92;11.38;;;;;;;1.88;100.00;100273.91;4977476;28;20081;-74
2023/03/04 06:22:18;;;;;;;29.90;13.00;;;;;;;1.88;100.00;100282.38;4960271;28;20030;-75
2023/03/04 06:24:44;;;;;;;28.63;12.32;;;;;;;1.89;100.00;100293.22;4977409;28;20447;-75
2023/03/04 06:27:12;;;;;;;27.88;13.93;;;;;;;1.85;100.00;100277.59;4959744;28;20126;-74
2023/03/04 06:29:38;;;;;;;33.92;14.20;;;;;;;1.77;100.00;100262.88;4959495;28;20058;-74
2023/03/04 06:32:05;;;;;;;27.73;14.70;;;;;;;1.91;100.00;100296.38;4959775;28;20433;-74
2023/03/04 06:34:32;;;;;;;25.70;13.25;;;;;;;1.93;100.00;100304.41;4927834;28;20113;-73
2023/03/04 06:37:05;;;;;;;24.85;14.05;;;;;;;1.96;100.00;100299.91;4972686;28;20495;-73
2023/03/04 06:39:33;;;;;;;34.97;14.50;;;;;;;1.86;100.00;100291.25;4977168;28;20109;-74
2023/03/04 06:42:10;;;;;;;30.10;15.20;;;;;;;1.96;100.00;100300.72;4959619;28;20031;-75
2023/03/04 06:44:35;;;;;;;31.42;16.10;;;;;;;1.96;100.00;100308.34;4977224;28;20057;-76
2023/03/04 06:47:01;;;;;;;32.00;15.80;;;;;;;1.98;100.00;100306.72;4977028;28;20429;-73
2023/03/04 06:49:28;;;;;;;27.02;14.90;;;;;;;2.06;100.00;100305.31;4977005;28;20035;-75
2023/03/04 06:51:53;;;;;;;31.00;15.43;;;;;;;2.08;100.00;100297.25;4958991;28;20030;-75
2023/03/04 06:54:20;;;;;;;24.90;14.35;;;;;;;2.12;100.00;100314.06;4943077;28;20039;-76
2023/03/04 06:56:46;;;;;;;29.90;16.05;;;;;;;2.13;100.00;100310.03;4958867;28;20401;-74
2023/03/04 06:59:12;;;;;;;31.83;14.88;;;;;;;2.09;100.00;100307.28;4959437;28;20066;-75
2023/03/04 07:01:38;;;;;;;25.23;14.07;;;;;;;2.15;100.00;100318.81;4943312;28;20116;-76
2023/03/04 07:04:04;;;;;;;37.83;14.73;;;;;;;2.22;100.00;100335.59;4976426;28;20067;-75
2023/03/04 07:06:31;;;;;;;28.27;13.75;;;;;;;2.12;100.00;100328.16;4927242;28;20038;-75
2023/03/04 07:08:56;;;;;;;28.15;13.73;;;;;;;2.18;100.00;100329.25;4959302;28;20042;-75
2023/03/04 07:11:23;;;;;;;26.73;13.82;;;;;;;2.14;100.00;100318.06;4976193;28;20027;-75
2023/03/04 07:13:50;;;;;;;27.92;14.73;;;;;;;2.26;100.00;100328.66;4975819;28;20042;-74
2023/03/04 07:16:19;;;;;;;22.25;13.00;;;;;;;2.30;100.00;100320.09;4959139;28;20078;-75
2023/03/04 07:18:45;;;;;;;25.65;11.43;;;;;;;2.37;100.00;100330.44;4958909;28;20045;-75
2023/03/04 07:21:13;;;;;;;27.73;12.43;;;;;;;2.40;100.00;100326.75;4958696;28;20038;-74
2023/03/04 07:23:40;;;;;;;25.40;11.52;;;;;;;2.43;100.00;100329.50;4958837;28;20073;-75
2023/03/04 07:26:14;;;;;;;25.77;13.05;;;;;;;2.49;100.00;100324.16;4958882;28;20031;-75
2023/03/04 07:28:41;;;;;;;27.08;10.65;;;;;;;2.53;100.00;100333.31;4976085;28;20035;-75
2023/03/04 07:31:22;;;;;;;21.75;11.30;;;;;;;2.51;100.00;100322.47;4976775;28;20122;-74
2023/03/04 07:33:50;;;;;;;28.25;13.82;;;;;;;2.47;100.00;100320.97;4975892;28;20034;-74
2023/03/04 07:36:18;;;;;;;26.42;12.90;;;;;;;2.45;100.00;100324.22;4939193;29;20058;-74
2023/03/04 07:39:04;;;;;;;24.02;12.13;;;;;;;2.42;100.00;100329.94;4956693;28;20106;-77
2023/03/04 07:41:35;;;;;;;19.60;10.43;;;;;;;2.51;100.00;100316.03;4956170;29;20050;-74
2023/03/04 07:44:00;;;;;;;22.50;11.00;;;;;;;2.56;100.00;100323.97;4955289;29;20051;-73
2023/03/04 07:46:27;;;;;;;23.00;11.70;;;;;;;2.48;100.00;100306.44;4955318;29;20425;-74
2023/03/04 07:48:54;;;;;;;21.50;11.43;;;;;;;2.51;100.00;100308.38;4956293;28;20377;-75
2023/03/04 07:51:23;;;;;;;23.23;12.25;;;;;;;2.46;100.00;100303.25;4923497;29;20039;-75
2023/03/04 07:53:59;;;;;;;21.48;11.77;;;;;;;2.62;100.00;100316.59;4955363;29;20043;-75
2023/03/04 07:56:30;;;;;;;27.40;12.70;;;;;;;2.66;100.00;100322.94;4955079;29;20035;-74
2023/03/04 07:58:56;;;;;;;26.38;12.73;;;;;;;2.67;100.00;100313.25;4955097;29;20038;-75
2023/03/04 08:01:30;;;;;;;23.85;11.65;;;;;;;2.64;100.00;100320.53;4955023;29;20035;-77
2023/03/04 08:03:57;;;;;;;28.95;12.57;;;;;;;2.59;100.00;100306.97;4955222;29;20046;-76
2023/03/04 08:06:23;;;;;;;25.10;12.05;;;;;;;2.74;100.00;100310.25;4956016;28;20081;-76
2023/03/04 08:08:49;;;;;;;27.88;14.43;;;;;;;2.70;100.00;100299.03;4938055;29;20058;-75
2023/03/04 08:11:39;;;;;;;28.35;12.98;;;;;;;2.71;100.00;100303.47;4954600;29;20039;-74
2023/03/04 08:14:06;;;;;;;27.23;14.40;;;;;;;2.78;100.00;100303.28;4954996;28;20039;-75
2023/03/04 08:16:34;;;;;;;27.38;12.32;;;;;;;2.84;100.00;100295.09;4954615;29;20397;-74
2023/03/04 08:19:02;;;;;;;34.50;15.35;;;;;;;2.83;100.00;100299.16;4954649;29;20111;-75
2023/03/04 08:21:42;;;;;;;28.40;13.82;;;;;;;2.83;100.00;100298.38;4956054;28;20054;-75
2023/03/04 08:24:09;;;;;;;29.60;14.77;;;;;;;2.79;100.00;100304.88;4955751;28;20483;-74
2023/03/04 08:26:49;;;;;;;31.27;15.13;;;;;;;2.79;100.00;100304.06;4954671;29;20039;-75
2023/03/04 08:29:31;;;;;;;22.80;12.52;;;;;;;2.79;100.00;100298.44;4956012;28;20027;-75
2023/03/04 08:32:00;;;;;;;22.15;13.07;;;;;;;2.94;100.00;100310.97;4955663;28;20031;-76
2023/03/04 08:34:27;;;;;;;30.95;12.93;;;;;;;2.90;100.00;100298.97;4955303;28;20031;-77
2023/03/04 08:36:54;;;;;;;29.63;13.93;;;;;;;2.92;100.00;100290.06;4965952;28;20062;-77
2023/03/04 08:39:21;;;;;;;28.42;13.38;;;;;;;2.96;100.00;100297.22;4926012;28;20188;-77
2023/03/04 08:41:48;;;;;;;22.35;12.32;;;;;;;2.96;100.00;100294.41;4957999;28;20031;-78
2023/03/04 08:44:15;;;;;;;20.98;10.55;;;;;;;3.07;100.00;100288.47;4972107;28;20113;-77
2023/03/04 08:46:42;;;;;;;24.80;11.15;;;;;;;3.16;100.00;100272.50;4941245;28;20089;-78
2023/03/04 08:49:10;;;;;;;21.02;10.23;;;;;;;3.29;100.00;100278.22;4956599;28;20404;-76
2023/03/04 08:51:37;;;;;;;18.85;10.60;;;;;;;3.31;100.00;100266.47;4941240;28;20031;-76
2023/03/04 08:54:03;;;;;;;15.63;9.05;;;;;;;3.36;100.00;100254.66;4974734;28;20030;-78
2023/03/04 08:56:31;;;;;;;17.60;8.52;;;;;;;3.58;100.00;100270.56;4974854;28;20078;-77
2023/03/04 08:58:57;;;;;;;19.40;9.82;;;;;;;3.46;100.00;100236.63;4974807;28;20043;-78
2023/03/04 09:01:24;;;;;;;17.88;9.27;;;;;;;3.50;100.00;100234.47;4957193;28;20035;-78
2023/03/04 09:03:50;;;;;;;17.50;9.35;;;;;;;3.83;100.00;100260.56;4974346;28;20476;-78
2023/03/04 09:06:16;;;;;;;15.93;7.93;;;;;;;3.70;100.00;100237.94;4940930;28;20077;-77
2023/03/04 09:08:43;;;;;;;20.52;8.25;;;;;;;3.65;100.00;100255.44;4940819;28;20400;-76
2023/03/04 09:11:11;;;;;;;13.65;7.57;;;;;;;3.75;100.00;100279.78;4974156;28;20035;-77
2023/03/04 09:13:38;;;;;;;25.48;8.35;;;;;;;3.78;100.00;100272.44;4956960;28;20034;-76
2023/03/04 09:16:09;;;;;;;12.93;6.95;;;;;;;3.83;100.00;100264.19;4941150;28;20043;-78
2023/03/04 09:18:35;;;;;;;21.38;11.20;;;;;;;3.64;100.00;100232.03;4974885;28;20038;-79
2023/03/04 09:21:03;;;;;;;13.90;8.30;;;;;;;3.93;100.00;100267.97;4956947;28;20039;-76
2023/03/04 09:23:29;;;;;;;16.33;7.07;;;;;;;3.99;100.00;100261.34;4974203;28;20169;-78
2023/03/04 09:25:55;;;;;;;17.05;6.95;;;;;;;4.00;100.00;100264.97;4972149;28;20054;-78
2023/03/04 09:28:22;;;;;;;14.02;6.65;;;;;;;4.02;100.00;100260.44;4974450;28;20495;-75
2023/03/04 09:30:48;;;;;;;18.02;7.85;;;;;;;3.97;100.00;100275.13;4940619;28;20030;-76
2023/03/04 09:33:15;;;;;;;14.40;7.43;;;;;;;3.98;100.00;100267.44;4974256;28;20037;-77
2023/03/04 09:35:42;;;;;;;15.38;7.32;;;;;;;4.08;100.00;100274.81;4956268;28;20031;-76
2023/03/04 09:38:16;;;;;;;13.27;7.15;;;;;;;4.16;100.00;100272.59;4973100;28;20038;-76
2023/03/04 09:40:50;;;;;;;12.40;6.55;;;;;;;4.27;100.00;100270.19;4973949;28;20396;-76
2023/03/04 09:43:28;;;;;;;13.68;7.10;;;;;;;4.26;100.00;100274.28;4955455;28;20027;-77
2023/03/04 09:45:56;;;;;;;14.15;6.78;;;;;;;4.20;100.00;100267.59;4957221;28;20023;-77
2023/03/04 09:48:24;;;;;;;14.27;7.68;;;;;;;4.23;100.00;100269.53;4972691;28;20022;-75
2023/03/04 09:51:45;;;;;;;16.67;5.78;;;;;;;4.27;100.00;100261.72;4940588;28;20109;-77
2023/03/04 09:54:44;;;;;;;15.38;6.90;;;;;;;4.24;100.00;100259.78;4933364;29;20051;-76
2023/03/04 09:57:44;;;;;;;11.95;7.10;;;;;;;4.27;100.00;100261.72;4974163;28;20046;-78
2023/03/04 10:00:23;;;;;;;21.33;7.63;;;;;;;4.20;100.00;100251.44;4971195;28;20105;-76
2023/03/04 10:03:09;;;;;;;13.10;6.18;;;;;;;4.22;100.00;100263.06;4973306;28;20073;-77
2023/03/04 10:06:06;;;;;;;13.43;6.72;;;;;;;4.21;100.00;100243.75;4956996;28;20027;-84
2023/03/04 10:08:54;;;;;;;17.60;7.35;;;;;;;4.17;100.00;100243.84;4956815;28;20109;-76
2023/03/04 10:11:27;;;;;;;15.93;6.50;;;;;;;4.22;100.00;100250.97;4972936;28;20053;-77
2023/03/04 10:13:59;;;;;;;12.82;6.45;;;;;;;4.31;100.00;100223.63;4973388;28;20473;-76
2023/03/04 10:16:33;;;;;;;14.18;6.47;;;;;;;4.37;100.00;100240.78;4973596;28;20031;-75
2023/03/04 10:19:10;;;;;;;17.05;6.50;;;;;;;4.37;100.00;100227.44;4956503;28;20050;-75
2023/03/04 10:21:44;;;;;;;13.00;6.78;;;;;;;4.45;100.00;100242.16;4973546;28;20027;-75
2023/03/04 10:24:16;;;;;;;15.15;6.93;;;;;;;4.46;100.00;100238.09;4957338;28;20031;-77
2023/03/04 10:26:45;;;;;;;11.52;5.90;;;;;;;4.60;100.00;100234.03;4956586;28;20035;-77
2023/03/04 10:29:21;;;;;;;7.90;5.45;;;;;;;4.70;100.00;100235.72;4973559;28;20121;-76
2023/03/04 10:31:48;;;;;;;14.75;6.75;;;;;;;4.75;100.00;100221.00;4957942;28;20030;-76
2023/03/04 10:34:29;;;;;;;12.55;6.88;;;;;;;4.77;100.00;100226.97;4959746;28;20033;-75
2023/03/04 10:36:56;;;;;;;9.73;5.23;;;;;;;4.77;100.00;100210.00;4975380;28;20126;-80
2023/03/04 10:39:26;;;;;;;13.13;6.75;;;;;;;4.69;100.00;100200.16;4976807;28;20034;-77
2023/03/04 10:42:04;;;;;;;13.60;5.88;;;;;;;4.73;100.00;100212.94;4960242;28;20042;-79
2023/03/04 10:44:43;;;;;;;13.52;6.85;;;;;;;4.70;100.00;100219.53;4977043;28;20121;-78
2023/03/04 10:47:13;;;;;;;17.08;6.78;;;;;;;4.77;100.00;100205.13;4975458;28;20034;-78
2023/03/04 10:49:51;;;;;;;11.32;5.43;;;;;;;4.90;100.00;100214.41;4976623;28;20449;-74
2023/03/04 10:52:38;;;;;;;14.35;6.65;;;;;;;5.04;100.00;100215.16;4959282;28;20034;-74
2023/03/04 10:55:16;;;;;;;16.45;5.95;;;;;;;5.10;100.00;100194.31;4959019;28;20033;-76
2023/03/04 10:57:45;;;;;;;16.27;6.80;;;;;;;5.22;100.00;100207.59;4976467;28;20034;-74
2023/03/04 11:00:16;;;;;;;12.55;5.97;;;;;;;5.34;100.00;100203.16;4943220;28;20107;-76
2023/03/04 11:02:45;;;;;;;13.20;7.10;;;;;;;5.36;100.00;100206.31;4976880;28;20035;-80
2023/03/04 11:05:18;;;;;;;14.23;6.30;;;;;;;5.38;100.00;100200.97;4959417;28;20041;-78
2023/03/04 11:07:44;;;;;;;16.58;7.13;;;;;;;5.37;100.00;100183.19;4976425;28;20063;-74
2023/03/04 11:10:24;;;;;;;12.95;6.20;;;;;;;5.53;100.00;100196.38;4975339;28;20113;-74
2023/03/04 11:13:07;;;;;;;11.77;5.05;;;;;;;5.65;100.00;100191.88;4975334;28;20037;-77
2023/03/04 11:15:47;;;;;;;13.80;6.60;;;;;;;5.68;100.00;100166.25;4973979;28;20038;-75
2023/03/04 11:18:13;;;;;;;13.35;6.30;;;;;;;6.19;100.00;100194.25;4957081;28;20037;-76
2023/03/04 11:20:58;;;;;;;15.38;5.65;;;;;;;6.54;100.00;100177.84;4973697;28;20114;-76